Time;durP1;ratioP1;P1;durP2;ratioP2;P2;SDS_P1;SDS_P2;PMS_P1;PMS_P2;Temp;Humidity;BMP_temperature;BMP_pressure;BME280_temperature;BME280_humidity;BME280_pressure;Samples;Min_cycle;Max_cycle;Signal;HPM_P1;HPM_P2
2022/01/05 00:02:15;;;;;;;15.95;2.13;;;;;;;3.24;85.73;100075.41;5090339;28;20099;-82
2022/01/05 00:04:40;;;;;;;13.88;2.80;;;;;;;3.20;85.79;100066.06;5088137;28;20028;-82
2022/01/05 00:07:06;;;;;;;16.90;2.10;;;;;;;3.19;86.33;100072.19;5088279;28;20021;-82
2022/01/05 00:09:32;;;;;;;14.05;2.63;;;;;;;3.18;85.64;100078.31;5089596;28;20215;-83
2022/01/05 00:11:58;;;;;;;11.82;2.38;;;;;;;3.14;85.56;100078.50;5089556;28;20118;-82
2022/01/05 00:14:23;;;;;;;15.38;2.55;;;;;;;3.11;86.10;100076.06;5088113;28;20408;-82
2022/01/05 00:16:48;;;;;;;14.57;2.47;;;;;;;3.10;86.35;100079.59;5081314;28;20526;-82
2022/01/05 00:19:13;;;;;;;11.52;2.38;;;;;;;3.09;86.09;100084.88;5070062;28;20089;-82
2022/01/05 00:21:40;;;;;;;14.65;2.67;;;;;;;3.05;85.51;100079.00;5085402;28;20036;-82
2022/01/05 00:24:06;;;;;;;12.02;2.30;;;;;;;3.02;85.72;100075.75;5070753;28;20016;-82
2022/01/05 00:26:32;;;;;;;10.32;2.45;;;;;;;2.99;86.29;100071.56;5068669;28;20543;-82
2022/01/05 00:28:57;;;;;;;14.85;2.78;;;;;;;2.95;85.66;100067.47;5068705;28;20036;-82
2022/01/05 00:31:23;;;;;;;16.83;2.33;;;;;;;2.94;85.90;100083.13;5069745;28;20097;-82
2022/01/05 00:33:50;;;;;;;19.25;2.90;;;;;;;2.91;86.29;100094.53;5074517;28;20051;-82
2022/01/05 00:36:15;;;;;;;12.40;2.55;;;;;;;2.86;85.70;100085.31;5069270;28;20081;-82
2022/01/05 00:38:41;;;;;;;12.38;2.67;;;;;;;2.83;86.07;100088.91;5068914;28;20456;-82
2022/01/05 00:41:06;;;;;;;13.40;2.38;;;;;;;2.76;85.54;100087.53;5068658;28;20052;-82
2022/01/05 00:43:32;;;;;;;14.23;2.85;;;;;;;2.75;85.76;100083.28;5104783;28;20391;-82
2022/01/05 00:45:57;;;;;;;12.60;2.65;;;;;;;2.71;84.83;100094.75;5070843;28;20032;-82
2022/01/05 00:48:23;;;;;;;13.27;2.25;;;;;;;2.65;85.43;100087.28;5083843;28;20039;-82
2022/01/05 00:50:48;;;;;;;15.82;2.63;;;;;;;2.62;85.66;100092.66;5085522;28;20032;-82
2022/01/05 00:53:13;;;;;;;18.40;3.13;;;;;;;2.58;85.70;100089.38;5087901;28;20072;-82
2022/01/05 00:55:39;;;;;;;16.77;2.75;;;;;;;2.58;85.42;100098.94;5088893;28;20032;-82
2022/01/05 00:58:05;;;;;;;12.65;2.50;;;;;;;2.55;85.02;100109.47;5088299;28;20118;-82
2022/01/05 01:00:30;;;;;;;12.60;2.95;;;;;;;2.53;86.30;100116.50;5089073;28;20388;-82
2022/01/05 01:02:55;;;;;;;15.35;3.13;;;;;;;2.48;86.28;100114.16;5089007;28;20032;-82
2022/01/05 01:05:21;;;;;;;12.50;2.70;;;;;;;2.45;85.32;100125.56;5069364;28;20031;-82
2022/01/05 01:07:47;;;;;;;13.00;2.70;;;;;;;2.43;85.86;100124.78;5086522;28;20023;-82
2022/01/05 01:10:15;;;;;;;13.90;2.92;;;;;;;2.37;86.31;100117.28;5088777;28;20504;-82
2022/01/05 01:12:41;;;;;;;13.18;2.90;;;;;;;2.36;85.76;100118.22;5089326;28;20052;-82
2022/01/05 01:15:09;;;;;;;14.82;3.08;;;;;;;2.33;85.34;100120.13;5105159;28;20020;-82
2022/01/05 01:17:35;;;;;;;11.75;2.63;;;;;;;2.30;85.01;100115.94;5087059;28;20060;-82
2022/01/05 01:20:01;;;;;;;13.15;2.80;;;;;;;2.28;85.84;100127.31;5098385;28;20501;-82
2022/01/05 01:22:29;;;;;;;14.85;3.17;;;;;;;2.24;86.04;100131.84;5087778;28;20111;-82
2022/01/05 01:24:54;;;;;;;18.13;3.20;;;;;;;2.20;85.77;100132.91;5071845;28;20021;-82
2022/01/05 01:27:20;;;;;;;21.50;3.20;;;;;;;2.17;86.02;100130.47;5068660;28;20044;-82
2022/01/05 01:29:46;;;;;;;15.43;3.15;;;;;;;2.16;85.71;100131.38;5069232;28;20028;-81
2022/01/05 01:32:14;;;;;;;7.35;2.35;;;;;;;2.12;86.18;100127.28;5068578;28;20387;-82
2022/01/05 01:34:39;;;;;;;9.95;2.90;;;;;;;2.09;85.96;100130.03;5076611;28;20336;-82
2022/01/05 01:37:05;;;;;;;13.90;3.15;;;;;;;2.07;85.83;100131.88;5105714;28;20027;-82
2022/01/05 01:39:30;;;;;;;13.95;3.08;;;;;;;2.05;85.44;100136.28;5099415;28;20268;-82
2022/01/05 01:41:56;;;;;;;12.95;2.90;;;;;;;2.00;85.73;100133.06;5088558;28;20365;-82
2022/01/05 01:44:21;;;;;;;13.25;2.85;;;;;;;1.99;86.08;100134.81;5088838;28;20024;-82
2022/01/05 01:46:46;;;;;;;14.15;2.83;;;;;;;1.95;85.06;100130.69;5089751;28;20040;-82
2022/01/05 01:49:12;;;;;;;13.57;2.90;;;;;;;1.94;84.87;100138.56;5088118;28;20055;-82
2022/01/05 01:51:38;;;;;;;13.77;2.95;;;;;;;1.92;84.93;100128.25;5089184;28;20387;-82
2022/01/05 01:54:05;;;;;;;12.57;3.13;;;;;;;1.91;84.97;100131.78;5088542;28;20088;-82
2022/01/05 01:56:33;;;;;;;13.48;2.40;;;;;;;1.91;84.58;100133.53;5086217;28;20028;-82
2022/01/05 01:58:59;;;;;;;12.65;2.85;;;;;;;1.87;84.53;100133.69;5087986;28;20028;-82
2022/01/05 02:01:25;;;;;;;11.65;2.42;;;;;;;1.87;84.68;100138.88;5088964;28;20069;-81
2022/01/05 02:03:50;;;;;;;11.93;2.80;;;;;;;1.83;84.03;100137.34;5089414;28;20032;-82
2022/01/05 02:06:15;;;;;;;14.20;2.58;;;;;;;1.86;85.41;100142.38;5069363;28;20024;-82
2022/01/05 02:08:44;;;;;;;18.33;3.10;;;;;;;1.84;84.45;100136.44;5068429;28;20668;-82
2022/01/05 02:11:12;;;;;;;10.73;2.70;;;;;;;1.84;84.60;100130.41;5068925;28;20457;-82
2022/01/05 02:13:37;;;;;;;18.33;2.67;;;;;;;1.82;84.27;100133.06;5079482;28;20426;-82
2022/01/05 02:16:03;;;;;;;14.35;3.20;;;;;;;1.80;83.37;100127.13;5087390;28;20028;-82
2022/01/05 02:21:02;;;;;;;13.70;2.67;;;;;;;1.80;84.63;100137.50;5088505;28;20035;-82
2022/01/05 02:23:27;;;;;;;13.20;2.67;;;;;;;1.80;85.08;100134.06;5088396;28;20059;-82
2022/01/05 02:25:53;;;;;;;15.13;2.97;;;;;;;1.79;83.84;100140.16;5088944;28;20048;-82
2022/01/05 02:28:19;;;;;;;19.13;2.60;;;;;;;1.75;83.52;100139.47;5086155;28;20123;-82
2022/01/05 02:30:44;;;;;;;18.25;2.90;;;;;;;1.74;83.37;100137.81;5086657;28;20103;-82
2022/01/05 02:33:10;;;;;;;10.25;2.63;;;;;;;1.71;83.48;100143.13;5088069;28;20120;-82
2022/01/05 02:35:35;;;;;;;13.35;2.97;;;;;;;1.67;83.42;100145.97;5090479;28;20337;-82
2022/01/05 02:38:01;;;;;;;14.93;2.88;;;;;;;1.65;84.29;100153.81;5091214;28;20024;-82
2022/01/05 02:40:27;;;;;;;13.43;2.90;;;;;;;1.62;83.63;100153.13;5091062;28;20054;-82
2022/01/05 02:42:55;;;;;;;13.40;2.78;;;;;;;1.60;84.30;100152.34;5108087;28;21030;-82
2022/01/05 02:45:21;;;;;;;17.08;3.03;;;;;;;1.58;84.92;100150.66;5086812;28;20054;-82
2022/01/05 02:47:48;;;;;;;14.18;2.90;;;;;;;1.54;84.52;100151.72;5090933;28;20031;-82
2022/01/05 02:50:14;;;;;;;8.30;2.45;;;;;;;1.53;84.60;100154.38;5092521;28;20048;-81
2022/01/05 02:52:40;;;;;;;11.82;2.42;;;;;;;1.50;84.77;100154.53;5092752;28;20103;-81
2022/01/05 02:55:06;;;;;;;11.88;3.00;;;;;;;1.48;84.83;100158.94;5091969;28;20420;-81
2022/01/05 02:57:31;;;;;;;12.80;2.65;;;;;;;1.46;85.31;100168.56;5091994;28;20142;-81
2022/01/05 02:59:57;;;;;;;15.25;2.60;;;;;;;1.44;84.76;100165.19;5091066;28;20099;-81
2022/01/05 03:02:23;;;;;;;13.82;3.38;;;;;;;1.43;84.44;100181.66;5086306;28;20092;-82
2022/01/05 03:04:48;;;;;;;15.95;2.72;;;;;;;1.40;84.47;100190.41;5087504;28;20054;-81
2022/01/05 03:07:15;;;;;;;18.13;2.63;;;;;;;1.37;84.84;100184.53;5090112;28;20488;-82
2022/01/05 03:09:41;;;;;;;11.18;2.70;;;;;;;1.37;85.39;100181.94;5091379;28;20090;-81
2022/01/05 03:12:07;;;;;;;11.60;2.88;;;;;;;1.34;84.83;100184.69;5090800;28;20032;-82
2022/01/05 03:14:33;;;;;;;12.30;2.65;;;;;;;1.32;84.90;100184.75;5082278;28;20458;-81
2022/01/05 03:16:58;;;;;;;12.77;2.80;;;;;;;1.31;85.50;100195.19;5106845;28;20035;-81
2022/01/05 03:19:23;;;;;;;15.40;2.85;;;;;;;1.30;85.77;100196.09;5089843;28;20026;-81
2022/01/05 03:21:49;;;;;;;13.00;3.15;;;;;;;1.28;85.46;100203.13;5090323;28;20089;-81
2022/01/05 03:24:14;;;;;;;17.50;3.20;;;;;;;1.28;86.24;100205.72;5089413;28;20052;-81
2022/01/05 03:26:40;;;;;;;17.05;3.28;;;;;;;1.25;85.79;100212.72;5091316;28;20035;-81
2022/01/05 03:29:05;;;;;;;16.90;3.05;;;;;;;1.24;86.21;100207.59;5091431;28;20380;-81
2022/01/05 03:31:31;;;;;;;17.33;3.00;;;;;;;1.21;85.68;100197.38;5089612;28;20198;-82
2022/01/05 03:33:56;;;;;;;15.25;3.40;;;;;;;1.20;85.72;100203.44;5090366;28;20035;-81
2022/01/05 03:36:21;;;;;;;14.88;2.95;;;;;;;1.19;85.40;100212.97;5090849;28;20035;-82
2022/01/05 03:38:47;;;;;;;14.02;2.83;;;;;;;1.18;85.67;100208.69;5101122;28;20015;-82
2022/01/05 03:41:12;;;;;;;12.05;3.05;;;;;;;1.18;85.49;100215.63;5091032;28;20036;-81
2022/01/05 03:43:38;;;;;;;17.30;3.42;;;;;;;1.16;85.74;100215.69;5081089;28;20070;-82
2022/01/05 03:46:03;;;;;;;12.30;2.67;;;;;;;1.15;85.07;100223.53;5090326;28;20028;-82
2022/01/05 03:48:29;;;;;;;14.02;2.55;;;;;;;1.14;84.95;100222.69;5090889;28;20102;-81
2022/01/05 03:50:54;;;;;;;12.30;2.65;;;;;;;1.15;85.02;100221.78;5090342;28;20071;-82
2022/01/05 03:53:19;;;;;;;17.63;2.80;;;;;;;1.15;84.35;100220.94;5089462;28;20440;-82
2022/01/05 03:55:46;;;;;;;14.23;2.88;;;;;;;1.16;84.58;100220.88;5090187;28;20535;-81
2022/01/05 03:58:15;;;;;;;17.02;3.10;;;;;;;1.17;85.03;100221.72;5089383;28;20024;-81
2022/01/05 04:00:51;;;;;;;18.98;2.70;;;;;;;1.19;85.39;100220.72;5091326;28;20026;-82
2022/01/05 04:03:18;;;;;;;13.40;3.20;;;;;;;1.22;84.35;100227.56;5091327;28;20020;-81
2022/01/05 04:05:44;;;;;;;16.17;3.10;;;;;;;1.22;84.28;100222.38;5090519;28;20023;-82
2022/01/05 04:08:09;;;;;;;15.95;2.95;;;;;;;1.23;84.39;100222.31;5090165;28;20379;-81
2022/01/05 04:10:35;;;;;;;15.82;3.03;;;;;;;1.24;84.45;100218.81;5088609;28;20024;-82
2022/01/05 04:13:01;;;;;;;21.33;3.13;;;;;;;1.29;83.94;100217.75;5090666;28;20818;-81
2022/01/05 04:15:26;;;;;;;16.50;2.72;;;;;;;1.28;83.63;100221.25;5090428;28;20103;-80
2022/01/05 04:17:52;;;;;;;13.65;2.70;;;;;;;1.28;83.90;100221.25;5091204;28;20031;-81
2022/01/05 04:20:18;;;;;;;12.20;2.67;;;;;;;1.28;84.18;100226.44;5088840;28;20059;-80
2022/01/05 04:22:44;;;;;;;21.95;3.13;;;;;;;1.27;84.20;100229.94;5090935;28;20379;-81
2022/01/05 04:25:09;;;;;;;15.43;2.83;;;;;;;1.27;83.67;100224.75;5090953;28;20031;-81
2022/01/05 04:27:35;;;;;;;12.90;2.50;;;;;;;1.26;83.77;100234.28;5084693;28;20384;-81
2022/01/05 04:30:01;;;;;;;21.25;3.70;;;;;;;1.25;83.82;100223.06;5088780;28;20043;-80
2022/01/05 04:32:26;;;;;;;14.45;2.80;;;;;;;1.27;83.57;100237.72;5089892;28;20052;-81
2022/01/05 04:34:52;;;;;;;14.20;2.90;;;;;;;1.25;83.89;100238.63;5088270;28;20077;-81
2022/01/05 04:37:19;;;;;;;14.32;2.88;;;;;;;1.25;84.11;100238.63;5088690;28;20712;-81
2022/01/05 04:39:45;;;;;;;14.65;2.47;;;;;;;1.24;84.05;100239.53;5088610;28;20446;-80
2022/01/05 04:42:10;;;;;;;16.05;3.08;;;;;;;1.25;84.47;100243.81;5068418;28;20028;-80
2022/01/05 04:44:36;;;;;;;16.33;3.63;;;;;;;1.25;84.34;100261.94;5083343;28;20449;-80
2022/01/05 04:47:01;;;;;;;20.50;3.97;;;;;;;1.27;84.23;100261.03;5068739;28;20020;-80
2022/01/05 04:49:27;;;;;;;16.50;3.50;;;;;;;1.27;84.43;100266.22;5068795;28;20024;-80
2022/01/05 04:51:52;;;;;;;18.05;4.25;;;;;;;1.27;84.80;100245.47;5069433;28;20100;-80
2022/01/05 04:54:18;;;;;;;23.80;4.85;;;;;;;1.29;85.28;100249.69;5069083;28;20020;-82
2022/01/05 04:56:43;;;;;;;19.13;4.43;;;;;;;1.31;84.63;100247.88;5069568;28;20024;-82
2022/01/05 04:59:08;;;;;;;20.23;4.50;;;;;;;1.36;85.41;100258.00;5070695;28;20419;-81
2022/01/05 05:01:34;;;;;;;18.90;4.35;;;;;;;1.37;85.59;100251.91;5080386;28;20032;-82
2022/01/05 05:03:59;;;;;;;16.70;3.75;;;;;;;1.42;85.75;100257.72;5081802;28;20095;-81
2022/01/05 05:06:24;;;;;;;23.05;3.78;;;;;;;1.43;85.66;100267.19;5086719;28;20114;-81
2022/01/05 05:08:50;;;;;;;17.98;3.53;;;;;;;1.43;85.78;100262.00;5088548;28;20021;-80
2022/01/05 05:11:16;;;;;;;15.95;3.67;;;;;;;1.47;85.96;100263.53;5089352;28;20400;-81
2022/01/05 05:13:44;;;;;;;18.55;3.22;;;;;;;1.50;85.48;100268.59;5081080;28;20441;-81
2022/01/05 05:16:09;;;;;;;20.02;3.00;;;;;;;1.53;85.68;100258.06;5069664;28;20036;-80
2022/01/05 05:18:35;;;;;;;16.75;3.25;;;;;;;1.56;85.53;100268.28;5078221;28;20028;-80
2022/01/05 05:21:01;;;;;;;14.52;2.70;;;;;;;1.56;85.95;100268.28;5075399;28;20052;-81
2022/01/05 05:23:27;;;;;;;18.40;2.83;;;;;;;1.58;85.62;100259.53;5069649;28;20025;-80
2022/01/05 05:25:52;;;;;;;21.83;3.40;;;;;;;1.58;85.32;100262.13;5086116;28;20472;-80
2022/01/05 05:28:18;;;;;;;19.20;3.22;;;;;;;1.60;85.59;100264.66;5070333;28;20025;-81
2022/01/05 05:30:43;;;;;;;17.15;3.45;;;;;;;1.61;85.69;100257.75;5084629;28;20567;-80
2022/01/05 05:33:09;;;;;;;20.90;3.50;;;;;;;1.60;85.34;100259.47;5070027;28;20033;-80
2022/01/05 05:35:34;;;;;;;19.08;3.30;;;;;;;1.62;85.79;100256.81;5094700;28;20105;-80
2022/01/05 05:38:00;;;;;;;16.42;2.92;;;;;;;1.61;85.90;100260.34;5087706;28;20024;-81
2022/01/05 05:40:25;;;;;;;15.90;2.75;;;;;;;1.62;86.14;100260.25;5089221;28;20085;-81
2022/01/05 05:42:51;;;;;;;22.35;3.70;;;;;;;1.63;85.42;100258.50;5087987;28;20035;-81
2022/01/05 05:45:17;;;;;;;18.63;3.72;;;;;;;1.62;85.82;100262.84;5089226;28;20022;-80
2022/01/05 05:47:42;;;;;;;16.52;3.30;;;;;;;1.62;86.01;100255.06;5088965;28;20027;-81
2022/01/05 05:50:09;;;;;;;15.10;3.15;;;;;;;1.63;85.48;100261.09;5088104;28;20108;-81
2022/01/05 05:52:34;;;;;;;21.02;3.85;;;;;;;1.63;86.01;100269.72;5086749;28;20122;-81
2022/01/05 05:54:59;;;;;;;21.73;3.40;;;;;;;1.64;86.00;100266.22;5083378;28;20107;-81
2022/01/05 05:57:25;;;;;;;20.65;3.20;;;;;;;1.64;86.37;100279.19;5068674;28;20028;-80
2022/01/05 05:59:50;;;;;;;18.73;3.67;;;;;;;1.63;85.90;100279.25;5071496;28;20055;-81
2022/01/05 06:02:15;;;;;;;15.43;3.45;;;;;;;1.65;86.58;100280.84;5087198;28;20516;-80
2022/01/05 06:04:44;;;;;;;17.88;3.42;;;;;;;1.65;86.06;100273.09;5091045;28;20090;-81
2022/01/05 06:07:09;;;;;;;14.88;3.35;;;;;;;1.63;86.57;100285.28;5086906;28;20059;-81
2022/01/05 06:09:34;;;;;;;18.83;3.63;;;;;;;1.66;86.47;100284.28;5072238;28;20063;-80
2022/01/05 06:12:00;;;;;;;20.98;3.55;;;;;;;1.66;86.56;100285.13;5097660;28;20047;-80
2022/01/05 06:14:25;;;;;;;25.25;3.55;;;;;;;1.66;86.96;100289.47;5092173;28;20487;-80
2022/01/05 06:16:51;;;;;;;14.60;3.72;;;;;;;1.66;86.63;100282.53;5091569;28;20077;-81
2022/01/05 06:19:16;;;;;;;23.52;3.78;;;;;;;1.67;87.41;100289.41;5090513;28;20024;-80
2022/01/05 06:21:44;;;;;;;20.52;3.58;;;;;;;1.67;86.47;100292.00;5108227;28;20073;-80
2022/01/05 06:24:10;;;;;;;18.77;3.30;;;;;;;1.67;87.38;100297.19;5093894;28;20031;-81
2022/01/05 06:26:35;;;;;;;21.52;3.97;;;;;;;1.68;87.31;100290.25;5089829;28;20371;-81
2022/01/05 06:29:00;;;;;;;18.20;3.50;;;;;;;1.68;86.80;100298.03;5092382;28;20224;-80
2022/01/05 06:31:26;;;;;;;16.48;3.60;;;;;;;1.69;87.18;100299.72;5091948;28;20072;-81
2022/01/05 06:33:51;;;;;;;19.73;3.85;;;;;;;1.68;87.53;100303.22;5092624;28;20032;-80
2022/01/05 06:36:16;;;;;;;17.33;3.80;;;;;;;1.67;86.81;100307.56;5108326;28;20036;-81
2022/01/05 06:38:42;;;;;;;18.70;4.00;;;;;;;1.69;86.93;100304.91;5091245;28;20482;-81
2022/01/05 06:41:07;;;;;;;25.17;4.15;;;;;;;1.70;87.53;100317.78;5091161;28;20031;-81
2022/01/05 06:43:34;;;;;;;21.08;3.58;;;;;;;1.70;87.37;100332.50;5086813;28;20027;-82
2022/01/05 06:45:59;;;;;;;24.45;3.72;;;;;;;1.70;87.51;100322.97;5093000;28;20052;-81
2022/01/05 06:48:25;;;;;;;20.08;3.45;;;;;;;1.71;87.47;100323.81;5090272;28;20062;-81
2022/01/05 06:50:50;;;;;;;26.35;3.88;;;;;;;1.73;87.48;100328.00;5092853;28;20024;-81
2022/01/05 06:53:16;;;;;;;25.23;4.25;;;;;;;1.74;87.30;100324.50;5091062;28;20028;-81
2022/01/05 06:55:41;;;;;;;20.42;3.72;;;;;;;1.74;87.59;100334.88;5084215;28;20023;-81
2022/01/05 06:58:07;;;;;;;18.65;3.95;;;;;;;1.73;87.69;100334.94;5070866;28;20123;-81
2022/01/05 07:00:32;;;;;;;15.93;3.70;;;;;;;1.74;88.15;100329.69;5076045;28;20012;-81
2022/01/05 07:02:58;;;;;;;20.83;4.38;;;;;;;1.76;87.57;100346.03;5085836;28;20552;-82
2022/01/05 07:05:25;;;;;;;20.33;4.50;;;;;;;1.75;87.85;100352.13;5091300;28;20024;-81
2022/01/05 07:07:50;;;;;;;15.10;3.75;;;;;;;1.75;88.17;100356.47;5090087;28;20496;-81
2022/01/05 07:10:17;;;;;;;22.05;4.72;;;;;;;1.75;87.75;100357.31;5089400;28;20031;-82
2022/01/05 07:12:42;;;;;;;19.45;4.00;;;;;;;1.77;88.50;100371.03;5091725;28;20483;-81
2022/01/05 07:15:08;;;;;;;20.35;4.30;;;;;;;1.76;88.27;100359.00;5090984;28;20107;-81
2022/01/05 07:17:33;;;;;;;21.15;4.40;;;;;;;1.80;88.10;100355.34;5089489;28;20515;-80
2022/01/05 07:19:59;;;;;;;16.38;4.00;;;;;;;1.80;87.83;100363.13;5089189;28;20149;-81
2022/01/05 07:22:25;;;;;;;21.63;4.50;;;;;;;1.82;88.06;100366.50;5089056;28;20468;-81
2022/01/05 07:24:50;;;;;;;22.08;4.55;;;;;;;1.83;88.53;100365.56;5090325;28;20031;-81
2022/01/05 07:27:16;;;;;;;20.50;4.43;;;;;;;1.84;88.40;100369.00;5082310;28;20020;-81
2022/01/05 07:29:41;;;;;;;17.88;4.32;;;;;;;1.87;88.36;100372.31;5085868;28;20111;-81
2022/01/05 07:32:07;;;;;;;18.45;4.00;;;;;;;1.88;88.61;100373.97;5085152;28;20047;-81
2022/01/05 07:34:32;;;;;;;22.00;4.07;;;;;;;1.87;88.90;100372.31;5085290;28;20032;-81
2022/01/05 07:36:58;;;;;;;19.98;4.22;;;;;;;1.92;88.98;100376.44;5084055;28;20033;-82
2022/01/05 07:39:23;;;;;;;21.80;4.35;;;;;;;1.94;88.65;100379.81;5085692;28;20028;-81
2022/01/05 07:41:49;;;;;;;18.88;4.10;;;;;;;1.96;88.78;100385.75;5075698;28;20102;-80
2022/01/05 07:44:14;;;;;;;18.35;3.75;;;;;;;2.00;88.78;100388.16;5090070;28;20030;-81
2022/01/05 07:46:40;;;;;;;18.52;3.95;;;;;;;2.03;89.22;100387.19;5080058;28;20025;-81
2022/01/05 07:49:06;;;;;;;19.48;4.07;;;;;;;2.07;89.12;100391.31;5084244;28;20432;-81
2022/01/05 07:51:32;;;;;;;23.15;3.97;;;;;;;2.08;88.62;100390.41;5078986;28;20036;-81
2022/01/05 07:53:58;;;;;;;23.50;4.03;;;;;;;2.12;88.59;100402.31;5079780;28;20484;-80
2022/01/05 07:56:23;;;;;;;16.73;3.60;;;;;;;2.16;88.83;100412.47;5079162;28;20031;-81
2022/01/05 07:58:50;;;;;;;18.58;3.95;;;;;;;2.19;89.29;100411.50;5078774;28;20020;-83
2022/01/05 08:01:18;;;;;;;19.83;3.90;;;;;;;2.23;89.35;100415.63;5083275;28;20031;-80
2022/01/05 08:03:45;;;;;;;15.85;3.70;;;;;;;2.28;89.28;100415.41;5079968;28;20077;-80
2022/01/05 08:06:14;;;;;;;22.17;4.15;;;;;;;2.32;89.14;100409.16;5076955;28;20120;-81
2022/01/05 08:08:43;;;;;;;23.23;4.00;;;;;;;2.36;89.06;100416.72;5081050;28;20028;-80
2022/01/05 08:11:08;;;;;;;21.38;3.70;;;;;;;2.41;89.07;100424.34;5079501;28;20028;-81
2022/01/05 08:13:34;;;;;;;24.92;3.90;;;;;;;2.44;89.10;100419.84;5082147;28;20077;-80
2022/01/05 08:15:59;;;;;;;17.65;3.72;;;;;;;2.50;89.21;100432.53;5094815;28;20499;-80
2022/01/05 08:18:24;;;;;;;25.10;4.05;;;;;;;2.57;88.52;100432.22;5077560;28;20073;-80
2022/01/05 08:20:50;;;;;;;19.50;4.10;;;;;;;2.63;88.69;100424.13;5094356;28;20475;-80
2022/01/05 08:23:20;;;;;;;25.52;4.07;;;;;;;2.71;88.31;100437.59;5079245;28;20122;-80
2022/01/05 08:25:46;;;;;;;16.98;3.03;;;;;;;2.77;87.74;100439.88;5078346;28;20023;-80
2022/01/05 08:28:16;;;;;;;15.90;3.60;;;;;;;2.83;87.56;100439.63;5095659;28;20111;-80
2022/01/05 08:30:44;;;;;;;18.63;3.40;;;;;;;2.86;87.21;100436.88;5078632;28;20071;-80
2022/01/05 08:33:10;;;;;;;15.30;3.47;;;;;;;2.92;87.66;100431.38;5095909;28;20068;-81
2022/01/05 08:35:36;;;;;;;17.90;3.20;;;;;;;2.96;87.53;100426.84;5076832;28;20074;-80
2022/01/05 08:38:03;;;;;;;16.80;3.33;;;;;;;2.99;87.40;100427.53;5083288;28;20024;-81
2022/01/05 08:40:28;;;;;;;22.25;3.90;;;;;;;3.05;87.12;100439.41;5068871;28;20024;-80
2022/01/05 08:42:55;;;;;;;20.88;3.72;;;;;;;3.10;86.56;100429.59;5081155;28;20077;-81
2022/01/05 08:45:21;;;;;;;18.08;3.20;;;;;;;3.13;86.81;100430.28;5089518;28;20345;-81
2022/01/05 08:47:49;;;;;;;17.27;3.40;;;;;;;3.19;86.75;100433.50;5072900;28;20024;-81
2022/01/05 08:50:17;;;;;;;21.92;3.20;;;;;;;3.21;85.89;100432.53;5069883;28;20115;-81
2022/01/05 08:52:42;;;;;;;20.50;3.78;;;;;;;3.22;86.19;100443.78;5070204;28;20036;-83
2022/01/05 08:55:08;;;;;;;16.67;3.28;;;;;;;3.29;86.13;100442.53;5080254;28;20028;-83
2022/01/05 08:57:35;;;;;;;21.27;3.90;;;;;;;3.32;84.83;100451.03;5069614;28;20048;-83
2022/01/05 09:00:00;;;;;;;19.17;3.63;;;;;;;3.35;84.95;100440.47;5069857;28;20020;-83
2022/01/05 09:02:28;;;;;;;22.55;3.63;;;;;;;3.38;85.00;100444.66;5079242;28;20081;-83
2022/01/05 09:04:53;;;;;;;18.63;3.65;;;;;;;3.39;84.96;100448.94;5090476;28;20031;-83
2022/01/05 09:07:19;;;;;;;20.30;3.45;;;;;;;3.41;84.83;100449.72;5089969;28;20020;-83
2022/01/05 09:09:45;;;;;;;17.67;3.30;;;;;;;3.48;85.09;100466.69;5089499;28;20016;-80
2022/01/05 09:12:14;;;;;;;16.00;3.17;;;;;;;3.54;85.10;100460.31;5084314;28;20123;-80
2022/01/05 09:14:40;;;;;;;19.13;3.13;;;;;;;3.57;85.47;100461.00;5077879;28;20555;-83
2022/01/05 09:17:06;;;;;;;19.63;3.20;;;;;;;3.61;85.69;100465.16;5094768;28;20021;-83
2022/01/05 09:19:32;;;;;;;18.33;3.20;;;;;;;3.65;85.16;100468.44;5082132;28;20222;-83
2022/01/05 09:21:58;;;;;;;19.38;3.08;;;;;;;3.66;85.12;100463.16;5088899;28;20354;-83
2022/01/05 09:24:25;;;;;;;18.13;3.25;;;;;;;3.72;84.71;100460.22;5079049;28;20035;-81
2022/01/05 09:26:56;;;;;;;17.98;3.10;;;;;;;3.75;84.22;100462.69;5080145;28;20051;-80
2022/01/05 09:29:23;;;;;;;20.58;3.47;;;;;;;3.83;83.46;100474.44;5080494;28;20031;-80
2022/01/05 09:31:49;;;;;;;25.00;3.65;;;;;;;3.86;83.88;100482.94;5099848;28;20552;-81
2022/01/05 09:34:15;;;;;;;16.80;3.00;;;;;;;3.92;82.82;100481.75;5081590;28;20434;-80
2022/01/05 09:36:44;;;;;;;24.05;3.33;;;;;;;3.95;83.22;100486.81;5083807;28;20112;-81
2022/01/05 09:41:57;;;;;;;18.02;3.40;;;;;;;4.01;84.36;100491.72;5093021;28;20092;-82
2022/01/05 09:44:32;;;;;;;19.20;3.63;;;;;;;4.03;84.60;100495.06;5086440;28;20111;-81
2022/01/05 09:47:10;;;;;;;16.35;3.03;;;;;;;4.02;85.23;100507.25;5084564;28;20027;-81
2022/01/05 09:49:37;;;;;;;18.75;3.25;;;;;;;4.01;84.75;100500.38;5093686;28;20035;-81
2022/01/05 09:52:08;;;;;;;19.55;3.20;;;;;;;4.04;84.63;100512.38;5094438;28;20035;-82
2022/01/05 09:54:35;;;;;;;21.90;3.47;;;;;;;4.05;85.08;100511.44;5094028;28;20491;-81
2022/01/05 09:57:02;;;;;;;18.13;3.33;;;;;;;4.06;85.38;100513.13;5089362;28;20797;-81
2022/01/05 09:59:32;;;;;;;25.27;3.42;;;;;;;4.05;85.66;100514.06;5075067;28;20494;-82
2022/01/05 10:01:58;;;;;;;21.98;3.45;;;;;;;4.05;85.21;100514.91;5074512;28;20021;-81
2022/01/05 10:04:23;;;;;;;22.33;3.33;;;;;;;4.05;84.90;100508.84;5090129;28;20035;-81
2022/01/05 10:06:49;;;;;;;24.95;3.40;;;;;;;4.08;84.81;100511.28;5074964;28;20021;-82
2022/01/05 10:09:14;;;;;;;17.92;3.00;;;;;;;4.08;84.95;100511.28;5086205;28;20032;-81
2022/01/05 10:11:40;;;;;;;17.23;2.97;;;;;;;4.12;84.63;100517.19;5094357;28;20400;-82
2022/01/05 10:14:06;;;;;;;16.15;3.30;;;;;;;4.14;84.89;100513.56;5094798;28;20107;-80
2022/01/05 10:16:32;;;;;;;17.38;3.30;;;;;;;4.16;85.08;100522.13;5093286;28;20547;-81
2022/01/05 10:18:58;;;;;;;17.95;2.85;;;;;;;4.17;84.23;100523.81;5082432;28;20124;-81
2022/01/05 10:21:32;;;;;;;18.98;3.25;;;;;;;4.23;84.47;100520.03;5093131;28;20111;-81
2022/01/05 10:23:58;;;;;;;21.30;3.25;;;;;;;4.23;84.57;100520.03;5090241;28;20031;-81
2022/01/05 10:26:36;;;;;;;15.70;3.08;;;;;;;4.26;84.62;100528.53;5093705;28;20031;-80
2022/01/05 10:29:07;;;;;;;24.27;3.65;;;;;;;4.30;84.27;100537.84;5092496;28;20032;-81
2022/01/05 10:31:39;;;;;;;19.00;3.30;;;;;;;4.36;83.80;100529.72;5093913;28;20080;-81
2022/01/05 10:34:20;;;;;;;20.23;3.17;;;;;;;4.44;84.32;100541.50;5091254;28;20032;-82
2022/01/05 10:36:55;;;;;;;18.33;3.30;;;;;;;4.50;84.69;100535.97;5088628;28;20044;-81
2022/01/05 10:39:35;;;;;;;18.92;3.28;;;;;;;4.57;83.98;100537.31;5088408;28;20020;-81
2022/01/05 10:42:19;;;;;;;20.10;3.50;;;;;;;4.62;84.12;100540.50;5089373;28;20062;-81
2022/01/05 10:44:50;;;;;;;22.10;3.85;;;;;;;4.66;82.98;100534.22;5089854;28;20031;-81
2022/01/05 10:47:16;;;;;;;18.50;3.03;;;;;;;4.68;82.96;100540.19;5092635;28;20471;-81
2022/01/05 10:49:42;;;;;;;17.17;3.08;;;;;;;4.71;82.34;100551.28;5089838;28;20031;-81
2022/01/05 10:52:27;;;;;;;20.05;3.17;;;;;;;4.77;83.16;100559.69;5090642;28;20058;-81
2022/01/05 10:54:54;;;;;;;21.23;3.17;;;;;;;4.80;82.51;100568.16;5090698;28;20024;-81
2022/01/05 10:57:22;;;;;;;17.75;3.05;;;;;;;4.83;81.89;100561.97;5088750;28;20017;-83
2022/01/05 10:59:50;;;;;;;17.40;3.13;;;;;;;4.85;81.67;100558.34;5090815;28;20082;-83
2022/01/05 11:02:22;;;;;;;20.27;3.40;;;;;;;4.88;81.63;100576.44;5089945;28;20573;-83
2022/01/05 11:04:48;;;;;;;14.75;2.78;;;;;;;4.92;81.92;100575.34;5089634;28;20023;-84
2022/01/05 11:07:22;;;;;;;25.88;3.30;;;;;;;4.98;81.93;100581.97;5087810;28;20028;-82
2022/01/05 11:10:01;;;;;;;21.27;3.22;;;;;;;5.02;81.37;100581.72;5091244;28;20031;-83
2022/01/05 11:12:40;;;;;;;17.38;3.20;;;;;;;5.02;80.61;100579.09;5088061;28;20068;-83
2022/01/05 11:15:27;;;;;;;19.52;3.42;;;;;;;5.07;81.36;100572.78;5088272;28;20024;-83
2022/01/05 11:18:04;;;;;;;16.20;2.83;;;;;;;5.12;81.94;100589.03;5082872;28;20021;-83
2022/01/05 11:20:29;;;;;;;17.33;2.92;;;;;;;5.09;80.04;100583.97;5087492;28;20088;-83
2022/01/05 11:22:54;;;;;;;20.02;3.15;;;;;;;5.11;80.87;100575.16;5084234;28;20020;-83
2022/01/05 11:25:20;;;;;;;23.88;3.58;;;;;;;5.10;79.79;100577.84;5082570;28;20146;-82
2022/01/05 11:27:45;;;;;;;23.27;2.88;;;;;;;5.12;80.21;100570.78;5088968;28;20024;-83